Time;durP1;ratioP1;P1;durP2;ratioP2;P2;SDS_P1;SDS_P2;PMS_P1;PMS_P2;Temp;Humidity;BMP_temperature;BMP_pressure;BME280_temperature;BME280_humidity;BME280_pressure;Samples;Min_cycle;Max_cycle;Signal;HPM_P1;HPM_P2
2022/11/13 00:00:57;;;;;;;15.77;9.50;;;;;;;7.31;92.88;102660.03;5029546;28;20029;-73
2022/11/13 00:03:23;;;;;;;15.55;9.25;;;;;;;7.33;93.01;102663.38;5024455;28;20037;-72
2022/11/13 00:05:58;;;;;;;16.35;9.57;;;;;;;7.33;92.95;102658.22;5025219;28;20072;-77
2022/11/13 00:08:23;;;;;;;15.13;9.70;;;;;;;7.28;92.62;102654.97;5021517;28;20961;-73
2022/11/13 00:10:48;;;;;;;15.18;9.13;;;;;;;7.21;92.71;102638.03;5027362;28;20029;-71
2022/11/13 00:13:14;;;;;;;15.85;9.77;;;;;;;7.23;92.96;102644.00;5029915;28;20071;-72
2022/11/13 00:15:39;;;;;;;14.43;9.90;;;;;;;7.24;93.29;102637.94;5025111;28;20041;-74
2022/11/13 00:18:04;;;;;;;17.63;11.20;;;;;;;7.24;93.14;102640.53;5028022;28;20026;-72
2022/11/13 00:20:30;;;;;;;13.73;10.05;;;;;;;7.26;93.58;102646.47;5025691;28;20071;-72
2022/11/13 00:22:55;;;;;;;13.93;9.77;;;;;;;7.23;93.45;102641.44;5026352;28;20037;-71
2022/11/13 00:25:21;;;;;;;17.17;9.68;;;;;;;7.23;93.52;102646.59;5024739;28;20557;-71
2022/11/13 00:27:46;;;;;;;14.98;9.23;;;;;;;7.24;93.29;102637.09;5024253;28;20462;-73
2022/11/13 00:30:11;;;;;;;16.50;9.80;;;;;;;7.18;93.13;102627.84;5024791;28;20029;-71
2022/11/13 00:32:38;;;;;;;17.35;10.38;;;;;;;7.21;93.61;102630.31;5030274;28;20038;-72
2022/11/13 00:35:05;;;;;;;17.33;11.80;;;;;;;7.17;93.22;102628.75;5025532;28;20029;-72
2022/11/13 00:37:30;;;;;;;18.98;10.98;;;;;;;7.19;93.43;102634.69;5023143;28;20025;-71
2022/11/13 00:39:55;;;;;;;17.33;12.15;;;;;;;7.18;93.52;102633.84;5025096;28;20171;-71
2022/11/13 00:42:21;;;;;;;16.10;10.05;;;;;;;7.17;93.51;102626.19;5025021;28;20075;-71
2022/11/13 00:44:46;;;;;;;18.73;11.57;;;;;;;7.12;93.72;102622.94;5033126;28;20078;-72
2022/11/13 00:47:11;;;;;;;22.10;11.43;;;;;;;7.03;93.78;102612.94;5041563;28;20087;-71
2022/11/13 00:49:37;;;;;;;17.38;12.63;;;;;;;7.02;93.63;102611.28;5027054;28;20045;-72
2022/11/13 00:52:02;;;;;;;19.30;12.48;;;;;;;7.01;93.32;102609.59;5024057;28;20018;-71
2022/11/13 00:54:27;;;;;;;21.13;13.38;;;;;;;7.00;93.96;102618.25;5024068;28;20489;-72
2022/11/13 00:56:53;;;;;;;17.83;12.63;;;;;;;6.97;93.86;102610.59;5023427;28;20112;-71
2022/11/13 00:59:18;;;;;;;18.73;12.38;;;;;;;7.00;94.49;102607.94;5024401;28;20045;-73
2022/11/13 01:01:44;;;;;;;22.65;13.07;;;;;;;6.97;93.52;102608.03;5033239;28;20469;-71
2022/11/13 01:04:09;;;;;;;18.27;11.73;;;;;;;6.96;93.74;102611.50;5032280;28;20127;-72
2022/11/13 01:06:34;;;;;;;19.10;12.30;;;;;;;6.95;94.56;102615.00;5031622;28;20043;-72
2022/11/13 01:09:00;;;;;;;20.33;12.52;;;;;;;6.92;94.16;102611.63;5032046;28;22024;-72
2022/11/13 01:11:28;;;;;;;17.63;11.50;;;;;;;6.93;93.65;102610.72;5026347;28;20053;-72
2022/11/13 01:13:53;;;;;;;18.30;11.27;;;;;;;6.93;94.04;102595.22;5030753;28;20377;-71
2022/11/13 01:16:24;;;;;;;19.70;12.23;;;;;;;6.96;94.14;102606.34;5027395;28;20521;-72
2022/11/13 01:18:49;;;;;;;17.75;11.30;;;;;;;6.94;94.32;102603.84;5024939;28;20124;-73
2022/11/13 01:21:21;;;;;;;16.52;11.48;;;;;;;6.93;94.40;102602.97;5026607;28;20533;-73
2022/11/13 01:23:46;;;;;;;16.42;11.30;;;;;;;6.89;93.67;102601.44;5028506;28;20025;-71
2022/11/13 01:26:22;;;;;;;17.85;11.20;;;;;;;6.89;93.31;102611.75;5028926;28;20401;-71
2022/11/13 01:28:47;;;;;;;16.40;11.23;;;;;;;6.86;93.76;102606.69;5028426;28;20386;-71
2022/11/13 01:31:19;;;;;;;15.75;9.98;;;;;;;6.85;93.40;102599.00;5024794;28;20027;-72
2022/11/13 01:33:46;;;;;;;19.75;10.85;;;;;;;6.79;93.06;102594.94;5025734;28;20041;-72
2022/11/13 01:36:15;;;;;;;14.35;10.07;;;;;;;6.79;93.20;102600.09;5022335;28;20025;-72
2022/11/13 01:38:40;;;;;;;15.43;9.65;;;;;;;6.79;93.64;102587.19;5018810;28;20036;-71
2022/11/13 01:41:07;;;;;;;20.50;10.45;;;;;;;6.74;93.17;102586.50;5035421;28;20161;-72
2022/11/13 01:43:37;;;;;;;16.25;10.85;;;;;;;6.71;93.85;102581.50;5024901;28;20056;-72
2022/11/13 01:46:10;;;;;;;16.58;10.65;;;;;;;6.71;93.39;102581.50;5027857;28;20478;-72
2022/11/13 01:48:41;;;;;;;15.07;10.50;;;;;;;6.69;93.94;102583.25;5039551;28;20067;-71
2022/11/13 01:51:13;;;;;;;13.95;10.13;;;;;;;6.62;93.18;102571.50;5031768;28;20069;-72
2022/11/13 01:53:41;;;;;;;15.68;9.68;;;;;;;6.60;92.53;102574.16;5026430;28;20031;-73
2022/11/13 01:56:07;;;;;;;15.98;10.23;;;;;;;6.57;92.66;102573.41;5034986;28;20030;-72
2022/11/13 01:58:33;;;;;;;18.50;9.75;;;;;;;6.54;92.55;102573.53;5028205;28;20035;-71
2022/11/13 02:00:58;;;;;;;14.32;10.02;;;;;;;6.50;93.69;102583.09;5026565;28;20416;-72
2022/11/13 02:03:24;;;;;;;17.83;9.90;;;;;;;6.46;93.58;102570.38;5029302;28;20136;-71
2022/11/13 02:05:50;;;;;;;14.65;9.98;;;;;;;6.42;93.85;102573.94;5028932;28;20529;-72
2022/11/13 02:08:16;;;;;;;15.25;10.48;;;;;;;6.32;93.17;102551.13;5030536;28;20029;-72
2022/11/13 02:10:41;;;;;;;15.63;10.13;;;;;;;6.29;93.48;102548.63;5036491;28;20036;-77
2022/11/13 02:13:07;;;;;;;15.90;10.75;;;;;;;6.32;94.44;102548.53;5034279;28;20109;-71
2022/11/13 02:15:33;;;;;;;14.85;9.40;;;;;;;6.32;94.55;102548.53;5031376;28;20031;-76
2022/11/13 02:18:00;;;;;;;15.07;10.73;;;;;;;6.26;94.88;102545.34;5028904;28;20040;-72
2022/11/13 02:20:39;;;;;;;15.57;10.73;;;;;;;6.25;95.31;102552.25;5028004;28;20025;-73
2022/11/13 02:23:19;;;;;;;14.68;9.23;;;;;;;6.23;95.26;102548.00;5025504;28;20107;-73
2022/11/13 02:25:48;;;;;;;17.25;10.60;;;;;;;6.21;95.21;102550.66;5017654;28;20034;-73
2022/11/13 02:28:14;;;;;;;13.38;8.82;;;;;;;6.24;95.44;102550.53;5024321;28;20060;-75
2022/11/13 02:30:39;;;;;;;14.90;10.02;;;;;;;6.25;94.79;102546.22;5038632;28;20120;-75
2022/11/13 02:33:27;;;;;;;14.95;9.57;;;;;;;6.28;94.25;102541.81;5026911;28;20075;-72
2022/11/13 02:35:52;;;;;;;16.92;10.63;;;;;;;6.23;94.88;102538.53;5026813;28;20037;-72
2022/11/13 02:38:18;;;;;;;14.75;9.15;;;;;;;6.25;94.56;102531.63;5021477;28;20041;-72
2022/11/13 02:40:43;;;;;;;17.33;9.60;;;;;;;6.26;94.17;102535.88;5023138;28;20116;-72
2022/11/13 02:43:09;;;;;;;16.45;9.93;;;;;;;6.23;94.76;102528.25;5029141;28;20085;-72
2022/11/13 02:45:37;;;;;;;14.70;9.85;;;;;;;6.22;94.28;102521.41;5029302;28;20045;-72
2022/11/13 02:48:03;;;;;;;16.63;10.15;;;;;;;6.26;94.22;102528.16;5033531;28;20029;-71
2022/11/13 02:50:29;;;;;;;16.05;9.80;;;;;;;6.24;93.99;102527.34;5032530;28;20067;-72
2022/11/13 02:52:54;;;;;;;18.45;10.75;;;;;;;6.23;94.23;102517.94;5031375;28;20065;-72
2022/11/13 02:55:19;;;;;;;16.42;10.98;;;;;;;6.27;94.32;102523.81;5025734;28;20040;-72
2022/11/13 02:57:45;;;;;;;15.15;10.00;;;;;;;6.24;93.54;102524.75;5026088;28;20033;-73
2022/11/13 03:00:12;;;;;;;15.25;10.65;;;;;;;6.25;94.04;102513.59;5026448;28;21008;-74
2022/11/13 03:02:37;;;;;;;16.55;10.15;;;;;;;6.27;93.76;102524.66;5018168;28;20021;-71
2022/11/13 03:05:03;;;;;;;15.63;9.90;;;;;;;6.23;93.90;102519.69;5020745;28;20052;-72
2022/11/13 03:07:29;;;;;;;14.55;10.27;;;;;;;6.24;93.31;102514.47;5020674;28;20029;-71
2022/11/13 03:09:55;;;;;;;17.35;10.18;;;;;;;6.23;93.78;102514.53;5020209;28;20030;-71
2022/11/13 03:12:21;;;;;;;17.75;10.23;;;;;;;6.22;93.65;102510.28;5030258;28;20029;-71
2022/11/13 03:14:46;;;;;;;14.10;10.32;;;;;;;6.15;93.54;102499.34;5024856;28;20355;-71
2022/11/13 03:17:12;;;;;;;16.88;10.48;;;;;;;6.17;93.24;102502.69;5028633;28;20465;-74
2022/11/13 03:19:37;;;;;;;15.00;10.07;;;;;;;6.14;92.61;102502.81;5021601;28;20458;-72
2022/11/13 03:22:03;;;;;;;16.48;9.90;;;;;;;6.14;92.20;102495.09;5026076;28;20049;-72
2022/11/13 03:24:28;;;;;;;15.80;9.60;;;;;;;6.06;92.97;102489.38;5031787;28;20025;-71
2022/11/13 03:26:53;;;;;;;14.98;9.57;;;;;;;6.09;92.87;102489.28;5030628;28;20039;-72
2022/11/13 03:29:19;;;;;;;15.85;9.77;;;;;;;6.11;93.18;102492.63;5027789;28;20048;-72
2022/11/13 03:31:44;;;;;;;14.85;9.98;;;;;;;6.11;92.41;102497.78;5021500;28;20042;-73
2022/11/13 03:34:10;;;;;;;14.50;8.40;;;;;;;6.03;92.19;102486.91;5034500;28;20493;-73
2022/11/13 03:36:35;;;;;;;15.52;9.32;;;;;;;6.03;91.84;102494.66;5029312;28;20458;-72
2022/11/13 03:39:01;;;;;;;14.18;9.35;;;;;;;5.98;92.12;102496.53;5028127;28;20377;-71
2022/11/13 03:41:26;;;;;;;12.70;8.60;;;;;;;5.96;91.96;102493.16;5028398;28;20029;-74
2022/11/13 03:43:51;;;;;;;13.07;8.52;;;;;;;5.97;91.96;102484.56;5027643;28;20722;-72
2022/11/13 03:46:20;;;;;;;15.65;8.82;;;;;;;5.98;91.15;102483.66;5027598;28;20053;-72
2022/11/13 03:48:45;;;;;;;13.80;8.40;;;;;;;5.92;91.23;102481.31;5025872;28;20052;-72
2022/11/13 03:51:10;;;;;;;13.10;8.20;;;;;;;5.95;91.02;102473.44;5026560;28;20462;-72
2022/11/13 03:53:36;;;;;;;11.93;7.97;;;;;;;5.97;91.03;102489.72;5033349;28;20034;-72
2022/11/13 03:56:01;;;;;;;16.20;8.93;;;;;;;5.93;91.05;102480.41;5027148;28;20029;-72
2022/11/13 03:58:27;;;;;;;15.25;8.43;;;;;;;5.95;90.60;102470.88;5031943;28;20109;-72
2022/11/13 04:00:54;;;;;;;12.70;8.55;;;;;;;5.96;90.39;102472.56;5025841;28;20474;-72
2022/11/13 04:03:20;;;;;;;12.25;7.65;;;;;;;5.93;90.36;102468.38;5025257;28;20029;-72
2022/11/13 04:05:47;;;;;;;12.07;7.22;;;;;;;5.97;89.30;102469.13;5039988;28;20036;-72
2022/11/13 04:08:12;;;;;;;12.73;8.30;;;;;;;5.99;89.18;102467.31;5029692;28;20053;-74
2022/11/13 04:10:38;;;;;;;14.82;7.57;;;;;;;5.98;89.51;102470.78;5026359;28;20044;-72
2022/11/13 04:13:03;;;;;;;12.73;7.75;;;;;;;6.02;89.23;102462.03;5030442;28;20029;-71
2022/11/13 04:15:28;;;;;;;12.07;7.25;;;;;;;6.02;88.97;102462.03;5030476;28;20552;-72
2022/11/13 04:17:54;;;;;;;12.13;8.05;;;;;;;6.02;89.11;102462.91;5028838;28;20033;-72
2022/11/13 04:20:19;;;;;;;11.25;6.32;;;;;;;6.02;89.21;102456.88;5030134;28;20032;-73
2022/11/13 04:22:44;;;;;;;15.75;8.00;;;;;;;5.94;89.28;102451.19;5024784;28;20543;-72
2022/11/13 04:25:10;;;;;;;11.95;7.75;;;;;;;5.99;89.09;102451.84;5033146;28;20061;-71
2022/11/13 04:27:35;;;;;;;12.10;7.13;;;;;;;5.95;89.26;102439.97;5028482;28;20533;-71
2022/11/13 04:30:02;;;;;;;11.20;6.72;;;;;;;6.01;88.58;102453.47;5024010;28;20057;-71
2022/11/13 04:32:28;;;;;;;13.38;7.95;;;;;;;5.99;88.80;102446.72;5024884;28;20375;-73
2022/11/13 04:34:53;;;;;;;10.77;7.63;;;;;;;5.95;88.54;102445.13;5023860;28;20040;-73
2022/11/13 04:37:18;;;;;;;12.73;7.60;;;;;;;5.98;88.63;102450.19;5026397;28;20036;-74
2022/11/13 04:39:44;;;;;;;11.63;6.22;;;;;;;5.99;89.01;102447.53;5023553;28;20036;-73
2022/11/13 04:44:54;;;;;;;12.77;7.65;;;;;;;5.96;88.29;102441.66;5029747;28;20397;-72
2022/11/13 04:47:20;;;;;;;10.15;6.13;;;;;;;5.95;87.93;102445.13;5026971;28;20025;-72
2022/11/13 04:49:45;;;;;;;15.95;7.82;;;;;;;5.92;88.07;102440.94;5029670;28;20405;-72
2022/11/13 04:52:11;;;;;;;10.90;7.25;;;;;;;5.95;88.01;102439.97;5026317;28;20077;-72
2022/11/13 04:54:37;;;;;;;12.45;7.18;;;;;;;5.93;88.21;102441.78;5025347;28;20537;-71
2022/11/13 04:57:02;;;;;;;13.50;7.50;;;;;;;5.95;87.54;102434.81;5027980;28;20032;-72
2022/11/13 04:59:27;;;;;;;13.43;7.47;;;;;;;5.94;87.85;102435.72;5027342;28;20068;-72
2022/11/13 05:01:54;;;;;;;14.55;7.85;;;;;;;5.92;87.76;102429.81;5029532;28;20030;-71
2022/11/13 05:04:19;;;;;;;11.55;7.40;;;;;;;5.95;87.40;102439.97;5028406;28;20033;-71
2022/11/13 05:06:45;;;;;;;11.77;6.47;;;;;;;5.93;87.58;102431.47;5023863;28;20071;-71
2022/11/13 05:09:10;;;;;;;12.10;7.63;;;;;;;5.94;87.27;102443.44;5021843;28;20037;-72
2022/11/13 05:11:36;;;;;;;14.27;8.32;;;;;;;5.92;88.03;102440.09;5015816;28;20076;-72
2022/11/13 05:14:02;;;;;;;12.93;6.88;;;;;;;5.90;87.35;102436.69;5024527;28;20034;-72
2022/11/13 05:16:28;;;;;;;14.68;6.60;;;;;;;5.93;87.09;102445.19;5025405;28;20252;-72
2022/11/13 05:18:53;;;;;;;13.20;7.82;;;;;;;5.89;87.17;102435.84;5026352;28;20359;-72
2022/11/13 05:21:19;;;;;;;14.25;7.90;;;;;;;5.90;87.58;102436.69;5029841;28;20064;-72
2022/11/13 05:23:44;;;;;;;11.38;7.32;;;;;;;5.91;87.73;102430.63;5026832;28;20493;-72
2022/11/13 05:26:12;;;;;;;12.57;6.90;;;;;;;5.85;87.96;102430.00;5032265;28;20029;-72
2022/11/13 05:28:38;;;;;;;12.18;7.60;;;;;;;5.83;88.28;102426.63;5030412;28;20067;-71
2022/11/13 05:31:11;;;;;;;13.80;7.32;;;;;;;5.84;88.45;102428.28;5034802;28;20521;-71
2022/11/13 05:33:37;;;;;;;12.90;7.47;;;;;;;5.84;88.15;102425.72;5034068;28;20029;-73
2022/11/13 05:36:09;;;;;;;15.13;8.20;;;;;;;5.77;88.33;102408.81;5033776;28;20033;-72
2022/11/13 05:38:35;;;;;;;12.10;7.60;;;;;;;5.81;88.89;102418.13;5027909;28;20584;-72
2022/11/13 05:41:06;;;;;;;14.02;7.93;;;;;;;5.77;88.01;102406.25;5034351;28;20022;-72
2022/11/13 05:43:32;;;;;;;13.43;8.27;;;;;;;5.74;88.55;102406.38;5027964;28;20037;-73
2022/11/13 05:46:00;;;;;;;11.70;7.75;;;;;;;5.73;88.99;102414.97;5028888;28;20103;-72
2022/11/13 05:48:25;;;;;;;13.00;7.73;;;;;;;5.71;89.00;102396.16;5029284;28;20033;-72
2022/11/13 05:50:50;;;;;;;12.07;7.30;;;;;;;5.70;89.18;102415.09;5029934;28;20040;-72
2022/11/13 05:53:16;;;;;;;12.95;7.88;;;;;;;5.66;89.49;102403.22;5029192;28;20021;-73
2022/11/13 05:55:41;;;;;;;14.85;7.95;;;;;;;5.61;89.78;102402.53;5029249;28;20033;-72
2022/11/13 05:58:06;;;;;;;14.75;7.88;;;;;;;5.61;90.08;102405.09;5026890;28;20543;-71
2022/11/13 06:00:32;;;;;;;13.95;8.52;;;;;;;5.58;89.67;102410.38;5029267;28;20048;-72
2022/11/13 06:02:59;;;;;;;12.35;7.30;;;;;;;5.55;89.79;102407.91;5028243;28;20025;-72
2022/11/13 06:05:24;;;;;;;13.05;8.70;;;;;;;5.49;90.22;102400.41;5028946;28;20119;-73
2022/11/13 06:07:49;;;;;;;12.50;8.68;;;;;;;5.46;90.27;102397.94;5029035;28;20485;-72
2022/11/13 06:10:15;;;;;;;16.65;8.68;;;;;;;5.43;90.67;102395.47;5023977;28;20033;-72
2022/11/13 06:12:40;;;;;;;13.05;8.45;;;;;;;5.43;91.16;102393.72;5029051;28;20030;-75
2022/11/13 06:15:06;;;;;;;13.57;8.68;;;;;;;5.41;90.78;102386.97;5029230;28;20021;-71
2022/11/13 06:17:32;;;;;;;14.75;8.02;;;;;;;5.40;90.68;102390.44;5030319;28;20029;-72
2022/11/13 06:19:57;;;;;;;13.30;8.60;;;;;;;5.30;90.50;102374.47;5036325;28;20041;-72
2022/11/13 06:22:22;;;;;;;14.13;8.63;;;;;;;5.32;90.92;102373.50;5034687;28;20083;-74
2022/11/13 06:24:48;;;;;;;12.70;8.38;;;;;;;5.28;90.33;102364.25;5036550;28;20161;-72
2022/11/13 06:27:13;;;;;;;15.07;7.78;;;;;;;5.29;90.49;102365.91;5035123;28;20355;-75
2022/11/13 06:29:38;;;;;;;12.60;7.95;;;;;;;5.29;90.19;102373.63;5032962;28;20037;-72
2022/11/13 06:32:04;;;;;;;11.27;7.97;;;;;;;5.29;90.16;102373.63;5020697;28;20426;-72
2022/11/13 06:34:29;;;;;;;14.77;9.20;;;;;;;5.26;90.21;102378.88;5031062;28;20036;-73
2022/11/13 06:36:54;;;;;;;12.85;8.65;;;;;;;5.19;90.09;102382.56;5033979;28;20021;-72
2022/11/13 06:39:20;;;;;;;12.88;8.70;;;;;;;5.18;90.34;102380.03;5036432;28;20025;-71
2022/11/13 06:41:45;;;;;;;13.30;8.52;;;;;;;5.14;90.85;102378.47;5037601;28;20033;-73
2022/11/13 06:44:10;;;;;;;12.93;8.43;;;;;;;5.11;90.69;102386.28;5026742;28;20470;-72
2022/11/13 06:46:36;;;;;;;14.70;9.13;;;;;;;5.05;90.62;102385.59;5030266;28;20037;-73
2022/11/13 06:49:01;;;;;;;14.77;10.18;;;;;;;5.04;91.00;102388.19;5034942;28;20055;-72
2022/11/13 06:51:29;;;;;;;16.35;9.77;;;;;;;5.03;91.78;102386.53;5029577;28;20082;-72
2022/11/13 06:53:55;;;;;;;16.83;9.98;;;;;;;4.98;91.77;102378.13;5027495;28;20037;-71
2022/11/13 06:56:21;;;;;;;15.88;10.98;;;;;;;4.98;92.16;102378.13;5029763;28;20021;-73
2022/11/13 06:58:47;;;;;;;15.15;10.45;;;;;;;4.94;92.25;102366.28;5029194;28;20045;-72
2022/11/13 07:01:21;;;;;;;18.27;10.77;;;;;;;4.94;92.69;102376.56;5027580;28;20021;-72
2022/11/13 07:03:46;;;;;;;16.45;11.00;;;;;;;4.89;92.70;102371.56;5024614;28;20041;-72
2022/11/13 07:06:19;;;;;;;16.27;10.35;;;;;;;4.91;92.84;102372.34;5026399;28;20067;-72
2022/11/13 07:08:46;;;;;;;15.73;11.23;;;;;;;4.87;92.66;102369.94;5030271;28;20208;-72
2022/11/13 07:11:22;;;;;;;21.17;11.32;;;;;;;4.87;93.08;102367.34;5022020;28;20040;-73
2022/11/13 07:13:48;;;;;;;16.15;10.98;;;;;;;4.87;93.05;102373.34;5029897;28;20033;-74
2022/11/13 07:16:15;;;;;;;18.10;11.63;;;;;;;4.86;93.31;102373.41;5030298;28;20114;-72
2022/11/13 07:18:40;;;;;;;19.08;12.18;;;;;;;4.86;93.42;102378.53;5029806;28;20032;-71
2022/11/13 07:21:09;;;;;;;19.58;11.45;;;;;;;4.86;93.29;102378.53;5027056;28;20021;-71
2022/11/13 07:23:38;;;;;;;19.27;10.85;;;;;;;4.85;93.05;102372.56;5028875;28;20049;-72
2022/11/13 07:26:04;;;;;;;17.25;11.02;;;;;;;4.84;93.24;102375.19;5031996;28;20044;-71
2022/11/13 07:28:29;;;;;;;19.23;11.40;;;;;;;4.82;93.05;102376.94;5031546;28;20033;-72
2022/11/13 07:30:58;;;;;;;17.10;10.82;;;;;;;4.76;92.84;102357.44;5028066;28;20033;-71
2022/11/13 07:33:24;;;;;;;17.23;11.63;;;;;;;4.78;93.22;102355.66;5023393;28;20155;-72
2022/11/13 07:35:52;;;;;;;17.00;12.30;;;;;;;4.75;93.40;102366.88;5025337;28;20544;-71
2022/11/13 07:38:18;;;;;;;17.33;11.75;;;;;;;4.82;93.35;102366.66;5025612;28;20466;-72
2022/11/13 07:40:43;;;;;;;18.38;12.20;;;;;;;4.84;93.31;102364.91;5026522;28;20208;-71
2022/11/13 07:43:08;;;;;;;16.52;11.60;;;;;;;4.84;93.49;102364.91;5025942;28;20424;-72
2022/11/13 07:45:34;;;;;;;17.33;13.05;;;;;;;4.84;93.65;102354.63;5033034;28;20029;-71
2022/11/13 07:48:03;;;;;;;21.02;12.75;;;;;;;4.84;93.59;102354.63;5026010;28;20477;-73
2022/11/13 07:50:31;;;;;;;16.15;11.70;;;;;;;4.91;93.79;102361.22;5032433;28;20509;-72
2022/11/13 07:53:03;;;;;;;17.70;11.80;;;;;;;4.93;93.22;102359.44;5030443;28;20067;-73
2022/11/13 07:55:29;;;;;;;17.83;10.70;;;;;;;4.95;93.54;102357.69;5027977;28;20059;-72
2022/11/13 07:57:56;;;;;;;14.77;10.88;;;;;;;4.94;93.22;102356.84;5027412;28;20033;-71
2022/11/13 08:00:22;;;;;;;18.25;12.25;;;;;;;4.93;93.73;102359.44;5034429;28;20047;-75
2022/11/13 08:02:48;;;;;;;16.60;11.65;;;;;;;4.97;93.51;102354.16;5032781;28;20025;-74
2022/11/13 08:05:14;;;;;;;17.02;11.20;;;;;;;5.02;93.51;102354.84;5027504;28;20056;-72
2022/11/13 08:07:39;;;;;;;16.38;10.55;;;;;;;5.08;93.37;102353.78;5029966;28;20060;-74
2022/11/13 08:10:05;;;;;;;16.17;11.80;;;;;;;5.12;93.32;102355.38;5025271;28;20051;-72
2022/11/13 08:12:31;;;;;;;14.68;10.25;;;;;;;5.17;93.46;102353.47;5031708;28;20075;-73
2022/11/13 08:14:56;;;;;;;18.70;12.18;;;;;;;5.18;92.85;102347.44;5037474;28;20021;-72
2022/11/13 08:17:21;;;;;;;15.90;11.07;;;;;;;5.19;92.87;102345.72;5030519;28;20517;-75
2022/11/13 08:19:47;;;;;;;15.15;10.77;;;;;;;5.23;93.29;102342.97;5025470;28;20446;-72
2022/11/13 08:22:12;;;;;;;20.92;12.35;;;;;;;5.28;93.34;102337.69;5032569;28;20056;-72
2022/11/13 08:24:38;;;;;;;17.65;11.90;;;;;;;5.31;93.19;102340.97;5029744;28;20029;-73
2022/11/13 08:27:05;;;;;;;16.02;11.02;;;;;;;5.30;92.70;102326.44;5029704;28;20033;-73
2022/11/13 08:29:31;;;;;;;17.08;11.95;;;;;;;5.41;92.82;102340.66;5029619;28;20048;-72
2022/11/13 08:31:56;;;;;;;16.65;10.93;;;;;;;5.43;92.89;102328.56;5029466;28;20378;-72
2022/11/13 08:34:21;;;;;;;14.43;10.05;;;;;;;5.46;92.71;102334.44;5035071;28;20401;-73
2022/11/13 08:36:47;;;;;;;16.90;11.48;;;;;;;5.52;92.70;102328.25;5034316;28;20070;-72
2022/11/13 08:39:13;;;;;;;18.67;10.43;;;;;;;5.52;92.93;102318.78;5030333;28;20029;-71
2022/11/13 08:41:38;;;;;;;16.17;10.98;;;;;;;5.61;92.40;102322.75;5038139;28;20025;-72
2022/11/13 08:44:04;;;;;;;14.93;10.77;;;;;;;5.65;92.82;102329.47;5028559;28;20017;-72
2022/11/13 08:46:29;;;;;;;17.02;10.18;;;;;;;5.70;92.23;102321.59;5031684;28;20469;-73
2022/11/13 08:48:55;;;;;;;16.92;9.60;;;;;;;5.76;92.73;102317.03;5030201;28;20362;-72
2022/11/13 08:51:20;;;;;;;16.60;10.05;;;;;;;5.80;92.27;102318.59;5019398;28;20541;-72
2022/11/13 08:53:46;;;;;;;14.27;10.32;;;;;;;5.89;91.24;102321.72;5031856;28;20032;-73
2022/11/13 08:56:11;;;;;;;15.88;10.85;;;;;;;5.96;91.17;102312.88;5025682;28;20029;-73
2022/11/13 08:58:37;;;;;;;17.75;10.48;;;;;;;6.02;91.73;102317.78;5023988;28;20029;-73
2022/11/13 09:01:03;;;;;;;17.08;10.25;;;;;;;6.07;91.35;102321.03;5024876;28;20111;-73
2022/11/13 09:03:29;;;;;;;16.50;10.20;;;;;;;6.13;91.47;102325.94;5031492;28;20382;-72
2022/11/13 09:05:54;;;;;;;15.82;11.05;;;;;;;6.16;91.57;102318.13;5026737;28;20036;-73
2022/11/13 09:08:19;;;;;;;15.30;10.10;;;;;;;6.21;90.96;102311.06;5027598;28;20030;-75
2022/11/13 09:10:45;;;;;;;14.65;10.20;;;;;;;6.30;91.01;102318.41;5021471;28;20029;-77
2022/11/13 09:13:11;;;;;;;15.48;10.25;;;;;;;6.41;90.82;102314.56;5029026;28;20466;-72
2022/11/13 09:15:38;;;;;;;14.68;9.73;;;;;;;6.47;89.74;102304.00;5029179;28;20040;-73
2022/11/13 09:18:04;;;;;;;15.40;9.73;;;;;;;6.60;90.28;102315.50;5024518;28;20366;-72
2022/11/13 09:20:31;;;;;;;16.83;10.82;;;;;;;6.69;89.24;102317.69;5034455;28;20033;-72
2022/11/13 09:22:57;;;;;;;14.63;9.75;;;;;;;6.80;89.17;102312.09;5016904;28;20497;-72
2022/11/13 09:25:23;;;;;;;15.10;9.88;;;;;;;6.86;88.81;102307.50;5024569;28;20029;-72
2022/11/13 09:27:57;;;;;;;16.10;11.32;;;;;;;6.96;88.51;102312.28;5026568;28;20493;-72
2022/11/13 09:30:23;;;;;;;17.20;10.80;;;;;;;7.02;88.40;102306.88;5024403;28;20044;-74
2022/11/13 09:32:53;;;;;;;14.55;9.82;;;;;;;7.08;88.57;102301.44;5022448;28;20029;-72
2022/11/13 09:35:32;;;;;;;15.85;9.98;;;;;;;7.15;88.76;102308.00;5031073;28;20072;-75
2022/11/13 09:38:08;;;;;;;13.05;10.23;;;;;;;7.26;87.67;102310.97;5028715;28;20025;-72
2022/11/13 09:40:39;;;;;;;14.60;10.23;;;;;;;7.29;88.45;102289.34;5038211;28;20021;-72
2022/11/13 09:43:12;;;;;;;13.50;10.60;;;;;;;7.38;88.08;102289.75;5027290;28;20040;-73
2022/11/13 09:45:39;;;;;;;14.23;10.68;;;;;;;7.51;88.24;102294.38;5032512;28;20044;-72
2022/11/13 09:48:24;;;;;;;12.63;9.52;;;;;;;7.58;88.19;102298.38;5033507;28;20606;-72
2022/11/13 09:50:50;;;;;;;13.45;10.45;;;;;;;7.64;87.42;102303.25;5029832;28;20128;-73
2022/11/13 09:53:16;;;;;;;14.52;9.23;;;;;;;7.70;87.26;102300.38;5027740;28;20109;-72
2022/11/13 09:55:55;;;;;;;12.68;9.70;;;;;;;7.76;86.51;102299.28;5028195;28;20379;-72
2022/11/13 09:58:31;;;;;;;15.02;10.43;;;;;;;7.83;87.37;102308.41;5024870;28;20025;-72
2022/11/13 10:00:57;;;;;;;15.20;10.85;;;;;;;7.88;86.89;102294.38;5028011;28;20021;-73
2022/11/13 10:03:42;;;;;;;14.25;9.93;;;;;;;7.99;86.92;102301.63;5027959;28;20044;-75
2022/11/13 10:06:23;;;;;;;14.25;10.85;;;;;;;8.08;87.05;102306.34;5032640;28;20029;-72
2022/11/13 10:08:57;;;;;;;14.80;10.88;;;;;;;8.16;85.92;102303.41;5028404;28;20037;-72
2022/11/13 10:11:37;;;;;;;14.10;10.15;;;;;;;8.24;85.98;102301.28;5027729;28;20087;-75
2022/11/13 10:14:18;;;;;;;13.77;10.13;;;;;;;8.27;85.50;102301.16;5032057;28;20028;-72
2022/11/13 10:17:02;;;;;;;13.07;9.80;;;;;;;8.36;84.45;102294.72;5035971;28;20458;-72
2022/11/13 10:19:46;;;;;;;14.43;9.90;;;;;;;8.47;84.37;102307.94;5027382;28;20031;-72
2022/11/13 10:22:18;;;;;;;13.38;9.65;;;;;;;8.55;83.59;102299.84;5031468;28;20498;-73
2022/11/13 10:24:44;;;;;;;13.65;9.10;;;;;;;8.61;83.06;102289.19;5027634;28;20369;-72
2022/11/13 10:27:11;;;;;;;11.13;8.43;;;;;;;8.67;82.08;102286.28;5027573;28;20029;-77
2022/11/13 10:29:37;;;;;;;12.02;9.50;;;;;;;8.73;82.85;102286.81;5031745;28;20065;-75
2022/11/13 10:32:15;;;;;;;14.45;9.73;;;;;;;8.82;83.12;102282.06;5021928;28;20030;-75
2022/11/13 10:34:48;;;;;;;15.27;9.38;;;;;;;8.88;82.53;102277.41;5027251;28;20044;-75
2022/11/13 10:37:38;;;;;;;13.20;9.18;;;;;;;8.98;82.67;102268.28;5026695;28;20079;-75
2022/11/13 10:40:04;;;;;;;12.48;9.52;;;;;;;9.08;81.39;102273.00;5031516;28;20025;-74
2022/11/13 10:42:41;;;;;;;13.77;9.23;;;;;;;9.16;82.01;102271.66;5027580;28;20032;-76
2022/11/13 10:45:18;;;;;;;13.63;9.10;;;;;;;9.25;81.02;102270.34;5031899;28;20033;-75
2022/11/13 10:47:48;;;;;;;12.00;8.38;;;;;;;9.35;82.24;102258.59;5026447;28;20037;-74
2022/11/13 10:50:35;;;;;;;10.43;7.85;;;;;;;9.44;81.02;102255.50;5031008;28;20029;-73
2022/11/13 10:53:00;;;;;;;10.55;7.88;;;;;;;9.51;79.93;102256.81;5026503;28;20041;-74
2022/11/13 10:55:38;;;;;;;11.95;7.68;;;;;;;9.61;79.51;102246.81;5032695;28;20086;-69
2022/11/13 10:58:15;;;;;;;10.18;7.30;;;;;;;9.73;78.41;102255.66;5030673;28;20041;-70
2022/11/13 11:00:43;;;;;;;12.75;9.02;;;;;;;9.83;78.45;102241.28;5019770;28;20025;-70
2022/11/13 11:03:23;;;;;;;12.70;8.23;;;;;;;9.90;79.65;102242.59;5033975;28;20108;-70
2022/11/13 11:06:00;;;;;;;14.05;8.65;;;;;;;9.96;79.70;102229.28;5026883;28;21032;-72
2022/11/13 11:08:31;;;;;;;12.18;9.18;;;;;;;10.03;78.57;102238.38;5029466;28;20053;-71
2022/11/13 11:13:47;;;;;;;13.02;8.57;;;;;;;10.23;79.60;102226.06;5038565;28;20048;-71
2022/11/13 11:16:19;;;;;;;11.85;7.10;;;;;;;10.28;77.81;102216.28;5034423;28;20401;-76
2022/11/13 11:18:54;;;;;;;12.90;7.10;;;;;;;10.39;78.31;102213.91;5032574;28;20124;-74
2022/11/13 11:21:25;;;;;;;11.20;7.50;;;;;;;10.48;78.49;102210.75;5028869;28;20025;-74
2022/11/13 11:24:04;;;;;;;10.27;7.35;;;;;;;10.54;78.59;102207.81;5031088;28;20111;-74
2022/11/13 11:26:29;;;;;;;;;;;;;;;10.66;81.03;102211.44;5029280;28;20029;-75
2022/11/13 11:29:13;;;;;;;12.68;7.78;;;;;;;10.75;78.83;102210.88;5031966;28;19955;-74